sensor_id;sensor_type;location;lat;lon;timestamp;pressure;altitude;pressure_sealevel;temperature;humidity
1480;BME280;732;51.698;4.886;2022-07-29T00:01:41;101719.34;;;18.82;100.00
1480;BME280;732;51.698;4.886;2022-07-29T00:04:10;101760.78;;;19.17;100.00
1480;BME280;732;51.698;4.886;2022-07-29T00:06:40;101714.97;;;18.71;100.00
1480;BME280;732;51.698;4.886;2022-07-29T00:09:08;101758.19;;;18.94;100.00
1480;BME280;732;51.698;4.886;2022-07-29T00:11:37;101757.31;;;18.93;100.00
1480;BME280;732;51.698;4.886;2022-07-29T00:14:06;101730.81;;;18.90;100.00
1480;BME280;732;51.698;4.886;2022-07-29T00:16:36;101737.03;;;18.73;100.00
1480;BME280;732;51.698;4.886;2022-07-29T00:19:05;101747.59;;;18.86;100.00
1480;BME280;732;51.698;4.886;2022-07-29T00:21:34;101752.88;;;18.98;100.00
1480;BME280;732;51.698;4.886;2022-07-29T00:24:02;101725.53;;;18.89;100.00
1480;BME280;732;51.698;4.886;2022-07-29T00:26:31;101752.00;;;19.05;100.00
1480;BME280;732;51.698;4.886;2022-07-29T00:29:00;101704.38;;;18.78;100.00
1480;BME280;732;51.698;4.886;2022-07-29T00:31:50;101745.78;;;19.05;100.00
1480;BME280;732;51.698;4.886;2022-07-29T00:34:19;101744.06;;;18.90;100.00
1480;BME280;732;51.698;4.886;2022-07-29T00:37:05;101705.22;;;18.85;100.00
1480;BME280;732;51.698;4.886;2022-07-29T00:39:33;101717.56;;;18.84;100.00
1480;BME280;732;51.698;4.886;2022-07-29T00:42:03;101688.47;;;18.78;100.00
1480;BME280;732;51.698;4.886;2022-07-29T00:44:37;101708.72;;;18.90;100.00
1480;BME280;732;51.698;4.886;2022-07-29T00:47:07;101721.09;;;18.92;100.00
1480;BME280;732;51.698;4.886;2022-07-29T00:49:37;101719.31;;;19.08;100.00
1480;BME280;732;51.698;4.886;2022-07-29T00:52:08;101697.25;;;18.98;100.00
1480;BME280;732;51.698;4.886;2022-07-29T00:54:38;101696.34;;;18.99;100.00
1480;BME280;732;51.698;4.886;2022-07-29T00:57:11;101695.47;;;19.03;100.00
1480;BME280;732;51.698;4.886;2022-07-29T00:59:40;101717.50;;;19.25;100.00
1480;BME280;732;51.698;4.886;2022-07-29T01:02:10;101664.56;;;19.02;100.00
1480;BME280;732;51.698;4.886;2022-07-29T01:04:38;101721.00;;;19.44;100.00
1480;BME280;732;51.698;4.886;2022-07-29T01:07:07;101713.94;;;19.25;100.00
1480;BME280;732;51.698;4.886;2022-07-29T01:09:37;101662.84;;;18.85;100.00
1480;BME280;732;51.698;4.886;2022-07-29T01:12:14;101677.88;;;18.74;100.00
1480;BME280;732;51.698;4.886;2022-07-29T01:14:45;101699.88;;;18.95;100.00
1480;BME280;732;51.698;4.886;2022-07-29T01:17:21;101686.66;;;18.80;100.00
1480;BME280;732;51.698;4.886;2022-07-29T01:20:01;101708.75;;;18.93;100.00
1480;BME280;732;51.698;4.886;2022-07-29T01:23:01;101698.16;;;18.87;100.00
1480;BME280;732;51.698;4.886;2022-07-29T01:25:54;101727.25;;;19.10;100.00
1480;BME280;732;51.698;4.886;2022-07-29T01:28:56;101654.03;;;18.72;100.00
1480;BME280;732;51.698;4.886;2022-07-29T01:31:33;101724.59;;;19.08;100.00
1480;BME280;732;51.698;4.886;2022-07-29T01:34:23;101707.03;;;18.57;100.00
1480;BME280;732;51.698;4.886;2022-07-29T01:37:01;101732.59;;;18.75;100.00
1480;BME280;732;51.698;4.886;2022-07-29T01:39:36;101727.28;;;18.75;100.00
1480;BME280;732;51.698;4.886;2022-07-29T01:42:14;101732.59;;;18.72;100.00
1480;BME280;732;51.698;4.886;2022-07-29T01:44:56;101732.59;;;18.78;100.00
1480;BME280;732;51.698;4.886;2022-07-29T01:47:31;101678.75;;;18.34;100.00
1480;BME280;732;51.698;4.886;2022-07-29T01:50:07;101680.56;;;18.45;100.00
1480;BME280;732;51.698;4.886;2022-07-29T01:52:44;101722.88;;;18.75;100.00
1480;BME280;732;51.698;4.886;2022-07-29T01:55:17;101667.28;;;18.54;100.00
1480;BME280;732;51.698;4.886;2022-07-29T01:57:49;101683.16;;;18.62;100.00
1480;BME280;732;51.698;4.886;2022-07-29T02:00:20;101649.63;;;18.41;100.00
1480;BME280;732;51.698;4.886;2022-07-29T02:02:50;101704.34;;;18.69;100.00
1480;BME280;732;51.698;4.886;2022-07-29T02:05:22;101702.59;;;18.68;100.00
1480;BME280;732;51.698;4.886;2022-07-29T02:07:53;101707.91;;;18.73;100.00
1480;BME280;732;51.698;4.886;2022-07-29T02:10:27;101671.69;;;18.33;100.00
1480;BME280;732;51.698;4.886;2022-07-29T02:12:57;101661.09;;;18.36;100.00
1480;BME280;732;51.698;4.886;2022-07-29T02:15:32;101699.06;;;18.66;100.00
1480;BME280;732;51.698;4.886;2022-07-29T02:18:04;101645.25;;;18.39;100.00
1480;BME280;732;51.698;4.886;2022-07-29T02:20:35;101657.59;;;18.38;100.00
1480;BME280;732;51.698;4.886;2022-07-29T02:23:04;101653.19;;;18.43;100.00
1480;BME280;732;51.698;4.886;2022-07-29T02:25:35;101669.97;;;18.48;100.00
1480;BME280;732;51.698;4.886;2022-07-29T02:28:06;101684.94;;;18.37;100.00
1480;BME280;732;51.698;4.886;2022-07-29T02:30:40;101661.97;;;18.09;100.00
1480;BME280;732;51.698;4.886;2022-07-29T02:33:13;101683.19;;;18.18;100.00
1480;BME280;732;51.698;4.886;2022-07-29T02:35:44;101692.00;;;18.16;100.00
1480;BME280;732;51.698;4.886;2022-07-29T02:38:15;101689.31;;;18.19;100.00
1480;BME280;732;51.698;4.886;2022-07-29T02:41:08;101643.47;;;17.98;100.00
1480;BME280;732;51.698;4.886;2022-07-29T02:43:40;101677.88;;;18.15;100.00
1480;BME280;732;51.698;4.886;2022-07-29T02:46:16;101658.44;;;17.87;100.00
1480;BME280;732;51.698;4.886;2022-07-29T02:49:02;101683.16;;;18.06;100.00
1480;BME280;732;51.698;4.886;2022-07-29T02:51:41;101655.75;;;17.63;100.00
1480;BME280;732;51.698;4.886;2022-07-29T02:54:20;101654.88;;;17.61;100.00
1480;BME280;732;51.698;4.886;2022-07-29T02:56:52;101666.34;;;17.74;100.00
1480;BME280;732;51.698;4.886;2022-07-29T02:59:26;101656.63;;;17.62;100.00
1480;BME280;732;51.698;4.886;2022-07-29T03:01:58;101683.13;;;17.89;100.00
1480;BME280;732;51.698;4.886;2022-07-29T03:04:27;101658.44;;;17.69;100.00
1480;BME280;732;51.698;4.886;2022-07-29T03:06:59;101685.75;;;17.76;100.00
1480;BME280;732;51.698;4.886;2022-07-29T03:09:29;101646.03;;;17.62;100.00
1480;BME280;732;51.698;4.886;2022-07-29T03:11:58;101649.56;;;17.54;100.00
1480;BME280;732;51.698;4.886;2022-07-29T03:14:26;101653.03;;;17.47;100.00
1480;BME280;732;51.698;4.886;2022-07-29T03:16:57;101655.66;;;17.45;100.00
1480;BME280;732;51.698;4.886;2022-07-29T03:19:27;101682.19;;;17.57;100.00
1480;BME280;732;51.698;4.886;2022-07-29T03:21:57;101632.72;;;17.38;100.00
1480;BME280;732;51.698;4.886;2022-07-29T03:24:31;101646.88;;;17.43;100.00
1480;BME280;732;51.698;4.886;2022-07-29T03:27:00;101673.34;;;17.55;100.00
1480;BME280;732;51.698;4.886;2022-07-29T03:29:29;101670.69;;;17.48;100.00
1480;BME280;732;51.698;4.886;2022-07-29T03:32:04;101638.00;;;17.32;100.00
1480;BME280;732;51.698;4.886;2022-07-29T03:34:36;101637.13;;;17.32;100.00
1480;BME280;732;51.698;4.886;2022-07-29T03:37:05;101640.63;;;17.26;100.00
1480;BME280;732;51.698;4.886;2022-07-29T03:39:39;101654.72;;;17.25;100.00
1480;BME280;732;51.698;4.886;2022-07-29T03:42:11;101675.88;;;17.34;100.00
1480;BME280;732;51.698;4.886;2022-07-29T03:44:44;101630.00;;;17.12;100.00
1480;BME280;732;51.698;4.886;2022-07-29T03:47:17;101675.06;;;17.41;100.00
1480;BME280;732;51.698;4.886;2022-07-29T03:49:50;101630.03;;;17.23;100.00
1480;BME280;732;51.698;4.886;2022-07-29T03:52:21;101636.25;;;17.31;100.00
1480;BME280;732;51.698;4.886;2022-07-29T03:54:50;101632.72;;;17.26;100.00
1480;BME280;732;51.698;4.886;2022-07-29T03:57:19;101682.91;;;17.28;100.00
1480;BME280;732;51.698;4.886;2022-07-29T03:59:49;101680.31;;;17.38;100.00
1480;BME280;732;51.698;4.886;2022-07-29T04:02:21;101669.63;;;17.12;100.00
1480;BME280;732;51.698;4.886;2022-07-29T04:04:56;101690.84;;;17.32;100.00
1480;BME280;732;51.698;4.886;2022-07-29T04:07:25;101643.25;;;17.20;100.00
1480;BME280;732;51.698;4.886;2022-07-29T04:09:53;101652.94;;;17.19;100.00
1480;BME280;732;51.698;4.886;2022-07-29T04:12:21;101670.59;;;17.34;100.00
1480;BME280;732;51.698;4.886;2022-07-29T04:14:49;101681.16;;;17.34;100.00
1480;BME280;732;51.698;4.886;2022-07-29T04:17:19;101640.53;;;17.06;100.00
1480;BME280;732;51.698;4.886;2022-07-29T04:19:47;101646.75;;;17.13;100.00
1480;BME280;732;51.698;4.886;2022-07-29T04:22:16;101644.94;;;17.03;100.00
1480;BME280;732;51.698;4.886;2022-07-29T04:24:44;101688.16;;;17.25;100.00
1480;BME280;732;51.698;4.886;2022-07-29T04:27:13;101687.28;;;17.21;100.00
1480;BME280;732;51.698;4.886;2022-07-29T04:29:41;101650.22;;;17.03;100.00
1480;BME280;732;51.698;4.886;2022-07-29T04:32:25;101642.38;;;17.19;100.00
1480;BME280;732;51.698;4.886;2022-07-29T04:34:53;101669.81;;;17.52;100.00
1480;BME280;732;51.698;4.886;2022-07-29T04:37:21;101685.72;;;17.68;100.00
1480;BME280;732;51.698;4.886;2022-07-29T04:39:50;101683.06;;;17.61;100.00
1480;BME280;732;51.698;4.886;2022-07-29T04:42:18;101673.38;;;17.73;100.00
1480;BME280;732;51.698;4.886;2022-07-29T04:44:53;101664.56;;;17.67;100.00
1480;BME280;732;51.698;4.886;2022-07-29T04:47:23;101691.91;;;17.72;100.00
1480;BME280;732;51.698;4.886;2022-07-29T04:49:51;101695.41;;;17.68;100.00
1480;BME280;732;51.698;4.886;2022-07-29T04:52:20;101629.19;;;17.36;100.00
1480;BME280;732;51.698;4.886;2022-07-29T04:54:48;101626.63;;;17.50;100.00
1480;BME280;732;51.698;4.886;2022-07-29T04:57:17;101691.00;;;17.70;100.00
1480;BME280;732;51.698;4.886;2022-07-29T04:59:45;101686.63;;;17.76;100.00
1480;BME280;732;51.698;4.886;2022-07-29T05:02:13;101623.00;;;17.24;100.00
1480;BME280;732;51.698;4.886;2022-07-29T05:04:43;101668.94;;;17.51;100.00
1480;BME280;732;51.698;4.886;2022-07-29T05:07:12;101693.72;;;17.79;100.00
1480;BME280;732;51.698;4.886;2022-07-29T05:09:48;101680.50;;;17.91;100.00
1480;BME280;732;51.698;4.886;2022-07-29T05:12:16;101620.53;;;17.69;100.00
1480;BME280;732;51.698;4.886;2022-07-29T05:14:45;101688.44;;;18.15;100.00
1480;BME280;732;51.698;4.886;2022-07-29T05:17:13;101649.63;;;18.09;100.00
1480;BME280;732;51.698;4.886;2022-07-29T05:19:43;101678.78;;;18.20;100.00
1480;BME280;732;51.698;4.886;2022-07-29T05:22:11;101653.19;;;18.15;100.00
1480;BME280;732;51.698;4.886;2022-07-29T05:24:39;101660.22;;;18.26;100.00
1480;BME280;732;51.698;4.886;2022-07-29T05:27:08;101655.81;;;18.10;100.00
1480;BME280;732;51.698;4.886;2022-07-29T05:29:37;101687.59;;;18.58;100.00
1480;BME280;732;51.698;4.886;2022-07-29T05:32:11;101672.63;;;18.50;100.00
1480;BME280;732;51.698;4.886;2022-07-29T05:34:40;101692.00;;;18.62;100.00
1480;BME280;732;51.698;4.886;2022-07-29T05:37:19;101676.16;;;18.50;100.00
1480;BME280;732;51.698;4.886;2022-07-29T05:39:47;101692.00;;;18.62;100.00
1480;BME280;732;51.698;4.886;2022-07-29T05:42:23;101693.75;;;18.75;100.00
1480;BME280;732;51.698;4.886;2022-07-29T05:44:52;101700.81;;;18.66;100.00
1480;BME280;732;51.698;4.886;2022-07-29T05:47:20;101675.25;;;18.66;100.00
1480;BME280;732;51.698;4.886;2022-07-29T05:49:49;101688.50;;;18.65;100.00
1480;BME280;732;51.698;4.886;2022-07-29T05:52:19;101707.84;;;18.97;100.00
1480;BME280;732;51.698;4.886;2022-07-29T05:54:47;101686.63;;;19.04;100.00
1480;BME280;732;51.698;4.886;2022-07-29T05:57:16;101698.03;;;19.28;100.00
1480;BME280;732;51.698;4.886;2022-07-29T05:59:45;101697.16;;;19.33;100.00
1480;BME280;732;51.698;4.886;2022-07-29T06:02:14;101721.75;;;19.67;100.00
1480;BME280;732;51.698;4.886;2022-07-29T06:04:43;101701.38;;;19.79;100.00
1480;BME280;732;51.698;4.886;2022-07-29T06:07:12;101705.56;;;20.18;100.00
1480;BME280;732;51.698;4.886;2022-07-29T06:09:42;101714.19;;;20.47;100.00
1480;BME280;732;51.698;4.886;2022-07-29T06:12:10;101718.34;;;20.75;100.00
1480;BME280;732;51.698;4.886;2022-07-29T06:14:39;101727.78;;;21.08;100.00
1480;BME280;732;51.698;4.886;2022-07-29T06:17:07;101699.44;;;21.09;100.00
1480;BME280;732;51.698;4.886;2022-07-29T06:19:38;101705.50;;;21.20;100.00
1480;BME280;732;51.698;4.886;2022-07-29T06:22:07;101726.41;;;21.50;100.00
1480;BME280;732;51.698;4.886;2022-07-29T06:24:36;101728.50;;;21.95;100.00
1480;BME280;732;51.698;4.886;2022-07-29T06:27:10;101698.47;;;21.86;100.00
1480;BME280;732;51.698;4.886;2022-07-29T06:29:38;101698.06;;;22.11;100.00
1480;BME280;732;51.698;4.886;2022-07-29T06:32:07;101681.94;;;22.22;100.00
1480;BME280;732;51.698;4.886;2022-07-29T06:34:36;101684.66;;;22.17;100.00
1480;BME280;732;51.698;4.886;2022-07-29T06:37:07;101707.13;;;22.01;100.00
1480;BME280;732;51.698;4.886;2022-07-29T06:39:41;101727.34;;;22.14;100.00
1480;BME280;732;51.698;4.886;2022-07-29T06:42:11;101687.72;;;21.92;100.00
1480;BME280;732;51.698;4.886;2022-07-29T06:44:40;101689.19;;;22.12;100.00
1480;BME280;732;51.698;4.886;2022-07-29T06:47:09;101705.34;;;22.00;100.00
1480;BME280;732;51.698;4.886;2022-07-29T06:49:38;101719.13;;;22.28;100.00
1480;BME280;732;51.698;4.886;2022-07-29T06:52:07;101715.38;;;22.39;100.00
1480;BME280;732;51.698;4.886;2022-07-29T06:54:35;101717.81;;;22.53;100.00
1480;BME280;732;51.698;4.886;2022-07-29T06:57:05;101716.13;;;22.47;100.00
1480;BME280;732;51.698;4.886;2022-07-29T06:59:35;101697.63;;;22.38;100.00
1480;BME280;732;51.698;4.886;2022-07-29T07:02:03;101698.16;;;22.07;100.00
1480;BME280;732;51.698;4.886;2022-07-29T07:04:32;101722.03;;;22.11;100.00
1480;BME280;732;51.698;4.886;2022-07-29T07:07:01;101733.78;;;22.00;100.00
1480;BME280;732;51.698;4.886;2022-07-29T07:09:29;101735.00;;;21.70;100.00
1480;BME280;732;51.698;4.886;2022-07-29T07:12:07;101730.75;;;21.57;100.00
1480;BME280;732;51.698;4.886;2022-07-29T07:14:37;101685.94;;;21.25;100.00
1480;BME280;732;51.698;4.886;2022-07-29T07:17:06;101752.13;;;21.49;100.00
1480;BME280;732;51.698;4.886;2022-07-29T07:19:35;101751.38;;;21.41;100.00
1480;BME280;732;51.698;4.886;2022-07-29T07:22:03;101748.94;;;21.17;100.00
1480;BME280;732;51.698;4.886;2022-07-29T07:24:32;101716.63;;;20.71;100.00
1480;BME280;732;51.698;4.886;2022-07-29T07:27:00;101739.66;;;20.69;100.00
1480;BME280;732;51.698;4.886;2022-07-29T07:29:29;101758.09;;;20.87;100.00
1480;BME280;732;51.698;4.886;2022-07-29T07:31:59;101754.09;;;20.37;100.00
1480;BME280;732;51.698;4.886;2022-07-29T07:34:27;101765.59;;;20.39;100.00
1480;BME280;732;51.698;4.886;2022-07-29T07:36:57;101765.75;;;20.12;100.00
1480;BME280;732;51.698;4.886;2022-07-29T07:39:25;101741.84;;;20.13;100.00
1480;BME280;732;51.698;4.886;2022-07-29T07:41:54;101733.09;;;19.97;100.00
1480;BME280;732;51.698;4.886;2022-07-29T07:44:22;101757.59;;;20.40;100.00
1480;BME280;732;51.698;4.886;2022-07-29T07:46:51;101738.94;;;20.51;100.00
1480;BME280;732;51.698;4.886;2022-07-29T07:49:22;101756.47;;;20.71;100.00
1480;BME280;732;51.698;4.886;2022-07-29T07:51:50;101716.63;;;20.71;100.00
1480;BME280;732;51.698;4.886;2022-07-29T07:54:19;101747.34;;;21.00;100.00
1480;BME280;732;51.698;4.886;2022-07-29T07:56:48;101704.91;;;20.92;100.00
1480;BME280;732;51.698;4.886;2022-07-29T07:59:19;101705.63;;;21.79;100.00
1480;BME280;732;51.698;4.886;2022-07-29T08:01:47;101745.69;;;22.87;100.00
1480;BME280;732;51.698;4.886;2022-07-29T08:04:23;101729.34;;;24.30;100.00
1480;BME280;732;51.698;4.886;2022-07-29T08:06:56;101723.19;;;25.29;100.00
1480;BME280;732;51.698;4.886;2022-07-29T08:09:27;101713.03;;;25.42;100.00
1480;BME280;732;51.698;4.886;2022-07-29T08:11:57;101705.78;;;25.75;100.00
1480;BME280;732;51.698;4.886;2022-07-29T08:14:26;101725.84;;;26.20;100.00
1480;BME280;732;51.698;4.886;2022-07-29T08:16:54;101739.22;;;26.48;100.00
1480;BME280;732;51.698;4.886;2022-07-29T08:19:24;101721.97;;;26.82;100.00
1480;BME280;732;51.698;4.886;2022-07-29T08:21:53;101741.72;;;27.77;100.00
1480;BME280;732;51.698;4.886;2022-07-29T08:24:22;101726.28;;;28.06;100.00
1480;BME280;732;51.698;4.886;2022-07-29T08:27:08;101746.91;;;28.71;100.00
1480;BME280;732;51.698;4.886;2022-07-29T08:29:56;101716.00;;;28.38;100.00
1480;BME280;732;51.698;4.886;2022-07-29T08:32:25;101731.84;;;28.23;100.00
1480;BME280;732;51.698;4.886;2022-07-29T08:35:16;101708.16;;;28.75;100.00
1480;BME280;732;51.698;4.886;2022-07-29T08:37:45;101713.75;;;28.49;100.00
1480;BME280;732;51.698;4.886;2022-07-29T08:40:14;101707.81;;;28.62;100.00
1480;BME280;732;51.698;4.886;2022-07-29T08:42:42;101732.28;;;28.78;100.00
1480;BME280;732;51.698;4.886;2022-07-29T08:45:11;101739.19;;;28.83;100.00
1480;BME280;732;51.698;4.886;2022-07-29T08:47:40;101713.38;;;28.14;100.00
1480;BME280;732;51.698;4.886;2022-07-29T08:50:09;101721.03;;;27.80;100.00
1480;BME280;732;51.698;4.886;2022-07-29T08:52:40;101720.44;;;28.17;100.00
1480;BME280;732;51.698;4.886;2022-07-29T08:55:10;101726.19;;;28.51;100.00
1480;BME280;732;51.698;4.886;2022-07-29T08:57:41;101721.81;;;27.82;100.00
1480;BME280;732;51.698;4.886;2022-07-29T09:00:21;101720.88;;;28.28;100.00
1480;BME280;732;51.698;4.886;2022-07-29T09:02:57;101713.44;;;28.56;100.00
1480;BME280;732;51.698;4.886;2022-07-29T09:05:26;101740.47;;;28.75;100.00
1480;BME280;732;51.698;4.886;2022-07-29T09:07:57;101733.81;;;29.03;100.00
1480;BME280;732;51.698;4.886;2022-07-29T09:10:25;101722.88;;;28.45;100.00
1480;BME280;732;51.698;4.886;2022-07-29T09:12:55;101710.88;;;28.32;100.00
1480;BME280;732;51.698;4.886;2022-07-29T09:15:23;101713.06;;;28.65;100.00
1480;BME280;732;51.698;4.886;2022-07-29T09:17:52;101705.91;;;27.99;100.00
1480;BME280;732;51.698;4.886;2022-07-29T09:20:22;101698.81;;;28.20;100.00
1480;BME280;732;51.698;4.886;2022-07-29T09:22:52;101724.66;;;28.46;100.00
1480;BME280;732;51.698;4.886;2022-07-29T09:25:35;101694.38;;;28.19;100.00
1480;BME280;732;51.698;4.886;2022-07-29T09:28:07;101715.00;;;28.18;100.00
1480;BME280;732;51.698;4.886;2022-07-29T09:30:37;101731.22;;;28.17;100.00
1480;BME280;732;51.698;4.886;2022-07-29T09:33:17;101734.91;;;28.36;100.00
1480;BME280;732;51.698;4.886;2022-07-29T09:35:46;101723.31;;;28.12;100.00
1480;BME280;732;51.698;4.886;2022-07-29T09:38:23;101713.69;;;28.28;100.00
1480;BME280;732;51.698;4.886;2022-07-29T09:40:58;101747.22;;;28.63;100.00
1480;BME280;732;51.698;4.886;2022-07-29T09:43:33;101711.91;;;28.29;100.00
1480;BME280;732;51.698;4.886;2022-07-29T09:46:11;101727.72;;;28.58;100.00
1480;BME280;732;51.698;4.886;2022-07-29T09:48:39;101742.88;;;28.61;100.00
1480;BME280;732;51.698;4.886;2022-07-29T09:51:17;101744.94;;;28.74;100.00
1480;BME280;732;51.698;4.886;2022-07-29T09:53:52;101697.59;;;28.49;100.00
1480;BME280;732;51.698;4.886;2022-07-29T09:56:38;101714.13;;;28.61;100.00
1480;BME280;732;51.698;4.886;2022-07-29T09:59:08;101731.84;;;28.67;100.00
1480;BME280;732;51.698;4.886;2022-07-29T10:01:38;101739.66;;;28.51;100.00
1480;BME280;732;51.698;4.886;2022-07-29T10:04:06;101710.03;;;28.31;100.00
1480;BME280;732;51.698;4.886;2022-07-29T10:06:35;101735.41;;;28.46;100.00
1480;BME280;732;51.698;4.886;2022-07-29T10:09:30;101732.53;;;28.72;100.00
1480;BME280;732;51.698;4.886;2022-07-29T10:12:09;101694.03;;;28.70;100.00
1480;BME280;732;51.698;4.886;2022-07-29T10:14:38;101726.09;;;28.54;100.00
1480;BME280;732;51.698;4.886;2022-07-29T10:17:08;101722.91;;;28.86;100.00
1480;BME280;732;51.698;4.886;2022-07-29T10:19:38;101711.81;;;28.94;100.00
1480;BME280;732;51.698;4.886;2022-07-29T10:22:09;101709.97;;;28.74;100.00
1480;BME280;732;51.698;4.886;2022-07-29T10:24:40;101726.34;;;28.90;100.00
1480;BME280;732;51.698;4.886;2022-07-29T10:27:10;101712.34;;;29.02;100.00
1480;BME280;732;51.698;4.886;2022-07-29T10:29:39;101725.47;;;29.09;100.00
1480;BME280;732;51.698;4.886;2022-07-29T10:32:19;101688.72;;;28.88;100.00
1480;BME280;732;51.698;4.886;2022-07-29T10:35:13;101718.66;;;29.01;100.00
1480;BME280;732;51.698;4.886;2022-07-29T10:38:14;101691.75;;;28.61;100.00
1480;BME280;732;51.698;4.886;2022-07-29T10:41:00;101719.97;;;29.12;100.00
1480;BME280;732;51.698;4.886;2022-07-29T10:43:52;101720.72;;;29.16;100.00
1480;BME280;732;51.698;4.886;2022-07-29T10:46:21;101697.50;;;29.13;100.00
1480;BME280;732;51.698;4.886;2022-07-29T10:49:10;101711.38;;;29.43;100.00
1480;BME280;732;51.698;4.886;2022-07-29T10:52:03;101680.22;;;29.38;100.00
1480;BME280;732;51.698;4.886;2022-07-29T10:54:53;101711.25;;;29.65;100.00
1480;BME280;732;51.698;4.886;2022-07-29T10:57:27;101706.56;;;29.88;100.00
1480;BME280;732;51.698;4.886;2022-07-29T11:00:31;101698.78;;;29.82;100.00
1480;BME280;732;51.698;4.886;2022-07-29T11:03:00;101714.22;;;29.40;100.00
1480;BME280;732;51.698;4.886;2022-07-29T11:05:55;101680.03;;;29.22;100.00
1480;BME280;732;51.698;4.886;2022-07-29T11:08:44;101720.22;;;29.65;100.00
1480;BME280;732;51.698;4.886;2022-07-29T11:11:37;101719.22;;;29.68;100.00
1480;BME280;732;51.698;4.886;2022-07-29T11:14:13;101681.97;;;29.57;100.00
1480;BME280;732;51.698;4.886;2022-07-29T11:17:06;101701.44;;;29.25;100.00
1480;BME280;732;51.698;4.886;2022-07-29T11:19:35;101720.28;;;29.25;100.00
1480;BME280;732;51.698;4.886;2022-07-29T11:22:33;101714.38;;;29.56;100.00
1480;BME280;732;51.698;4.886;2022-07-29T11:25:13;101714.97;;;29.24;100.00
1480;BME280;732;51.698;4.886;2022-07-29T11:27:43;101699.69;;;29.24;100.00
1480;BME280;732;51.698;4.886;2022-07-29T11:30:14;101711.63;;;29.18;100.00
1480;BME280;732;51.698;4.886;2022-07-29T11:32:45;101687.31;;;29.20;100.00
1480;BME280;732;51.698;4.886;2022-07-29T11:35:18;101705.25;;;29.21;100.00
1480;BME280;732;51.698;4.886;2022-07-29T11:38:24;101692.44;;;29.45;100.00
1480;BME280;732;51.698;4.886;2022-07-29T11:41:25;101690.47;;;29.09;100.00
1480;BME280;732;51.698;4.886;2022-07-29T11:43:59;101712.81;;;29.32;100.00
1480;BME280;732;51.698;4.886;2022-07-29T11:46:45;101704.59;;;29.73;100.00
1480;BME280;732;51.698;4.886;2022-07-29T11:49:21;101689.56;;;29.49;100.00
1480;BME280;732;51.698;4.886;2022-07-29T11:51:59;101700.38;;;29.86;100.00
1480;BME280;732;51.698;4.886;2022-07-29T11:54:32;101693.28;;;29.65;100.00
1480;BME280;732;51.698;4.886;2022-07-29T11:57:21;101696.97;;;29.63;100.00
1480;BME280;732;51.698;4.886;2022-07-29T12:00:07;101689.53;;;29.31;97.93
1480;BME280;732;51.698;4.886;2022-07-29T12:02:41;101694.94;;;29.31;98.27
1480;BME280;732;51.698;4.886;2022-07-29T12:05:17;101696.03;;;29.25;95.93
1480;BME280;732;51.698;4.886;2022-07-29T12:08:11;101712.63;;;29.36;97.51
1480;BME280;732;51.698;4.886;2022-07-29T12:10:42;101699.28;;;29.33;99.99
1480;BME280;732;51.698;4.886;2022-07-29T12:13:11;101713.13;;;29.44;100.00
1480;BME280;732;51.698;4.886;2022-07-29T12:15:40;101676.94;;;29.70;100.00
1480;BME280;732;51.698;4.886;2022-07-29T12:18:15;101720.06;;;29.50;99.04
1480;BME280;732;51.698;4.886;2022-07-29T12:20:48;101673.78;;;29.22;99.73
1480;BME280;732;51.698;4.886;2022-07-29T12:23:16;101724.00;;;30.00;98.55
1480;BME280;732;51.698;4.886;2022-07-29T12:25:45;101715.75;;;29.46;96.94
1480;BME280;732;51.698;4.886;2022-07-29T12:28:16;101709.28;;;29.88;96.37
1480;BME280;732;51.698;4.886;2022-07-29T12:30:53;101712.69;;;29.92;96.53
1480;BME280;732;51.698;4.886;2022-07-29T12:33:24;101707.13;;;29.95;96.64
1480;BME280;732;51.698;4.886;2022-07-29T12:35:57;101726.66;;;29.81;96.47
1480;BME280;732;51.698;4.886;2022-07-29T12:38:40;101720.31;;;30.01;98.90
1480;BME280;732;51.698;4.886;2022-07-29T12:41:09;101720.13;;;30.05;95.15
1480;BME280;732;51.698;4.886;2022-07-29T12:43:52;101720.31;;;30.20;96.11
1480;BME280;732;51.698;4.886;2022-07-29T12:46:21;101712.78;;;29.52;95.94
1480;BME280;732;51.698;4.886;2022-07-29T12:48:52;101699.44;;;29.49;96.01
1480;BME280;732;51.698;4.886;2022-07-29T12:51:30;101703.47;;;29.59;98.50
1480;BME280;732;51.698;4.886;2022-07-29T12:54:05;101719.41;;;29.63;95.53
1480;BME280;732;51.698;4.886;2022-07-29T12:56:34;101714.91;;;29.45;94.15
1480;BME280;732;51.698;4.886;2022-07-29T12:59:13;101705.75;;;29.29;93.31
1480;BME280;732;51.698;4.886;2022-07-29T13:01:42;101698.09;;;29.20;95.93
1480;BME280;732;51.698;4.886;2022-07-29T13:04:11;101701.16;;;29.31;94.98
1480;BME280;732;51.698;4.886;2022-07-29T13:07:00;101700.25;;;29.12;94.35
1480;BME280;732;51.698;4.886;2022-07-29T13:09:49;101711.69;;;29.56;97.15
1480;BME280;732;51.698;4.886;2022-07-29T13:12:17;101720.22;;;29.65;96.29
1480;BME280;732;51.698;4.886;2022-07-29T13:14:49;101709.03;;;29.74;96.64
1480;BME280;732;51.698;4.886;2022-07-29T13:17:19;101695.97;;;29.65;96.38
1480;BME280;732;51.698;4.886;2022-07-29T13:19:52;101720.13;;;29.87;97.70
1480;BME280;732;51.698;4.886;2022-07-29T13:22:24;101718.41;;;30.22;96.87
1480;BME280;732;51.698;4.886;2022-07-29T13:24:54;101710.97;;;30.27;95.62
1480;BME280;732;51.698;4.886;2022-07-29T13:27:25;101701.91;;;30.46;97.17
1480;BME280;732;51.698;4.886;2022-07-29T13:29:55;101699.44;;;30.42;95.28
1480;BME280;732;51.698;4.886;2022-07-29T13:32:25;101711.56;;;30.33;94.59
1480;BME280;732;51.698;4.886;2022-07-29T13:34:55;101723.50;;;30.46;95.69
1480;BME280;732;51.698;4.886;2022-07-29T13:37:25;101703.34;;;30.70;95.18
1480;BME280;732;51.698;4.886;2022-07-29T13:39:57;101701.06;;;30.97;96.26
1480;BME280;732;51.698;4.886;2022-07-29T13:42:26;101700.13;;;30.81;95.27
1480;BME280;732;51.698;4.886;2022-07-29T13:44:54;101723.59;;;31.13;94.80